CheckWX is a tool to help pilots better visualize weather data.  It is not intended as a substitute for an official pre-flight weather briefing.

08:54:12 UTC

DAUA METAR
Touat Cheikh Sidi Mohamed Belkebir Airport
Algeria
Current

54 mins ago

DAUA 230800Z 12011KT 8000 NSC 23/04 Q1004
Observed
Apr-23 @ 08:00 UTC
Wind
  • 120° at 11 KTS
Visibility
7,998 meters
Flight Rules
MVFR
Cloud Levels
  • Clear skies
Temperature
23°C / 73°F
Dewpoint
C / 39°F
Humidity
29%
Altimeter
29.65" Hg
Pressure
1003.92 hPa
Previous

2 hours ago

DAUA 230700Z 10008KT 8000 NSC 17/M00 Q1004
Observed
Apr-23 @ 07:00 UTC
Wind
  • 100° at 8 KTS
Visibility
7,998 meters
Flight Rules
MVFR
Cloud Levels
  • Clear skies
Temperature
17°C / 63°F
Dewpoint
C / 32°F
Humidity
32%
Altimeter
29.65" Hg
Pressure
1003.92 hPa
Previous

3 hours ago

DAUA 230600Z 09008KT 8000 NSC 15/M02 Q1003
Observed
Apr-23 @ 06:00 UTC
Wind
  • 090° at 8 KTS
Visibility
7,998 meters
Flight Rules
MVFR
Cloud Levels
  • Clear skies
Temperature
15°C / 59°F
Dewpoint
-2°C / 28°F
Humidity
31%
Altimeter
29.62" Hg
Pressure
1002.92 hPa